sensor_id;sensor_type;location;lat;lon;timestamp;P1;durP1;ratioP1;P2;durP2;ratioP2
21162;SDS011;10739;52.198;20.908;2023-12-29T00:02:05;12.90;;;6.93;;
21162;SDS011;10739;52.198;20.908;2023-12-29T00:04:31;11.85;;;6.22;;
21162;SDS011;10739;52.198;20.908;2023-12-29T00:06:57;11.30;;;6.68;;
21162;SDS011;10739;52.198;20.908;2023-12-29T00:09:24;11.20;;;6.72;;
21162;SDS011;10739;52.198;20.908;2023-12-29T00:11:50;15.05;;;6.65;;
21162;SDS011;10739;52.198;20.908;2023-12-29T00:14:17;12.05;;;5.78;;
21162;SDS011;10739;52.198;20.908;2023-12-29T00:16:43;11.80;;;5.60;;
21162;SDS011;10739;52.198;20.908;2023-12-29T00:19:12;9.73;;;5.80;;
21162;SDS011;10739;52.198;20.908;2023-12-29T00:21:40;11.98;;;5.93;;
21162;SDS011;10739;52.198;20.908;2023-12-29T00:24:06;11.50;;;6.53;;
21162;SDS011;10739;52.198;20.908;2023-12-29T00:26:32;10.00;;;5.97;;
21162;SDS011;10739;52.198;20.908;2023-12-29T00:28:59;11.23;;;6.72;;
21162;SDS011;10739;52.198;20.908;2023-12-29T00:31:25;11.30;;;5.93;;
21162;SDS011;10739;52.198;20.908;2023-12-29T00:33:52;11.95;;;5.85;;
21162;SDS011;10739;52.198;20.908;2023-12-29T00:36:19;11.27;;;5.85;;
21162;SDS011;10739;52.198;20.908;2023-12-29T00:38:46;10.32;;;5.88;;
21162;SDS011;10739;52.198;20.908;2023-12-29T00:41:12;12.48;;;6.03;;
21162;SDS011;10739;52.198;20.908;2023-12-29T00:43:38;11.18;;;5.90;;
21162;SDS011;10739;52.198;20.908;2023-12-29T00:46:05;10.30;;;5.35;;
21162;SDS011;10739;52.198;20.908;2023-12-29T00:48:31;11.35;;;5.57;;
21162;SDS011;10739;52.198;20.908;2023-12-29T00:50:58;8.95;;;5.47;;
21162;SDS011;10739;52.198;20.908;2023-12-29T00:53:26;10.23;;;6.10;;
21162;SDS011;10739;52.198;20.908;2023-12-29T00:55:52;10.48;;;5.38;;
21162;SDS011;10739;52.198;20.908;2023-12-29T00:58:18;9.65;;;5.63;;
21162;SDS011;10739;52.198;20.908;2023-12-29T01:00:44;11.02;;;5.32;;
21162;SDS011;10739;52.198;20.908;2023-12-29T01:03:10;10.63;;;5.55;;
21162;SDS011;10739;52.198;20.908;2023-12-29T01:05:37;8.07;;;5.03;;
21162;SDS011;10739;52.198;20.908;2023-12-29T01:08:03;11.73;;;5.45;;
21162;SDS011;10739;52.198;20.908;2023-12-29T01:10:29;10.93;;;5.88;;
21162;SDS011;10739;52.198;20.908;2023-12-29T01:12:55;10.68;;;5.47;;
21162;SDS011;10739;52.198;20.908;2023-12-29T01:15:21;9.30;;;5.68;;
21162;SDS011;10739;52.198;20.908;2023-12-29T01:17:47;8.80;;;5.18;;
21162;SDS011;10739;52.198;20.908;2023-12-29T01:20:14;11.63;;;5.78;;
21162;SDS011;10739;52.198;20.908;2023-12-29T01:22:40;10.90;;;5.43;;
21162;SDS011;10739;52.198;20.908;2023-12-29T01:25:06;9.40;;;5.55;;
21162;SDS011;10739;52.198;20.908;2023-12-29T01:27:32;12.65;;;6.30;;
21162;SDS011;10739;52.198;20.908;2023-12-29T01:29:59;10.43;;;6.18;;
21162;SDS011;10739;52.198;20.908;2023-12-29T01:32:25;11.00;;;5.28;;
21162;SDS011;10739;52.198;20.908;2023-12-29T01:34:52;10.00;;;5.93;;
21162;SDS011;10739;52.198;20.908;2023-12-29T01:37:18;10.95;;;5.72;;
21162;SDS011;10739;52.198;20.908;2023-12-29T01:39:44;9.75;;;5.75;;
21162;SDS011;10739;52.198;20.908;2023-12-29T01:42:10;9.70;;;6.18;;
21162;SDS011;10739;52.198;20.908;2023-12-29T01:44:36;15.52;;;5.82;;
21162;SDS011;10739;52.198;20.908;2023-12-29T01:47:03;10.82;;;5.47;;
21162;SDS011;10739;52.198;20.908;2023-12-29T01:49:41;13.85;;;6.10;;
21162;SDS011;10739;52.198;20.908;2023-12-29T01:52:11;12.05;;;6.13;;
21162;SDS011;10739;52.198;20.908;2023-12-29T01:54:39;12.00;;;6.35;;
21162;SDS011;10739;52.198;20.908;2023-12-29T01:57:08;8.68;;;5.95;;
21162;SDS011;10739;52.198;20.908;2023-12-29T01:59:34;11.23;;;6.13;;
21162;SDS011;10739;52.198;20.908;2023-12-29T02:02:02;12.88;;;7.13;;
21162;SDS011;10739;52.198;20.908;2023-12-29T02:04:29;9.35;;;5.88;;
21162;SDS011;10739;52.198;20.908;2023-12-29T02:06:56;11.63;;;6.72;;
21162;SDS011;10739;52.198;20.908;2023-12-29T02:09:24;11.38;;;6.38;;
21162;SDS011;10739;52.198;20.908;2023-12-29T02:11:50;9.55;;;6.60;;
21162;SDS011;10739;52.198;20.908;2023-12-29T02:14:17;12.70;;;6.55;;
21162;SDS011;10739;52.198;20.908;2023-12-29T02:22:03;14.15;;;7.15;;
21162;SDS011;10739;52.198;20.908;2023-12-29T02:24:33;14.10;;;6.82;;
21162;SDS011;10739;52.198;20.908;2023-12-29T02:33:16;13.30;;;7.43;;
21162;SDS011;10739;52.198;20.908;2023-12-29T02:35:47;13.65;;;7.47;;
21162;SDS011;10739;52.198;20.908;2023-12-29T02:38:18;15.48;;;8.13;;
21162;SDS011;10739;52.198;20.908;2023-12-29T02:40:44;11.10;;;6.97;;
21162;SDS011;10739;52.198;20.908;2023-12-29T02:43:12;13.40;;;7.43;;
21162;SDS011;10739;52.198;20.908;2023-12-29T02:45:40;15.60;;;7.88;;
21162;SDS011;10739;52.198;20.908;2023-12-29T02:48:07;12.85;;;7.32;;
21162;SDS011;10739;52.198;20.908;2023-12-29T02:50:34;12.65;;;7.47;;
21162;SDS011;10739;52.198;20.908;2023-12-29T02:53:00;14.93;;;7.95;;
21162;SDS011;10739;52.198;20.908;2023-12-29T02:55:29;14.63;;;8.07;;
21162;SDS011;10739;52.198;20.908;2023-12-29T02:57:56;12.40;;;7.75;;
21162;SDS011;10739;52.198;20.908;2023-12-29T03:00:22;11.13;;;7.15;;
21162;SDS011;10739;52.198;20.908;2023-12-29T03:02:48;14.32;;;8.63;;
21162;SDS011;10739;52.198;20.908;2023-12-29T03:05:14;12.85;;;7.20;;
21162;SDS011;10739;52.198;20.908;2023-12-29T03:07:41;14.00;;;8.20;;
21162;SDS011;10739;52.198;20.908;2023-12-29T03:10:07;12.93;;;8.25;;
21162;SDS011;10739;52.198;20.908;2023-12-29T03:12:34;13.18;;;7.32;;
21162;SDS011;10739;52.198;20.908;2023-12-29T03:15:00;13.85;;;7.97;;
21162;SDS011;10739;52.198;20.908;2023-12-29T03:17:27;16.80;;;9.18;;
21162;SDS011;10739;52.198;20.908;2023-12-29T03:19:53;18.13;;;8.85;;
21162;SDS011;10739;52.198;20.908;2023-12-29T03:22:19;17.08;;;8.60;;
21162;SDS011;10739;52.198;20.908;2023-12-29T03:24:46;15.68;;;8.50;;
21162;SDS011;10739;52.198;20.908;2023-12-29T03:27:12;11.85;;;7.88;;
21162;SDS011;10739;52.198;20.908;2023-12-29T03:29:38;13.18;;;8.02;;
21162;SDS011;10739;52.198;20.908;2023-12-29T03:32:05;17.98;;;9.32;;
21162;SDS011;10739;52.198;20.908;2023-12-29T03:34:32;14.30;;;8.98;;
21162;SDS011;10739;52.198;20.908;2023-12-29T03:36:59;17.95;;;8.95;;
21162;SDS011;10739;52.198;20.908;2023-12-29T03:39:25;14.93;;;8.85;;
21162;SDS011;10739;52.198;20.908;2023-12-29T03:41:51;15.85;;;8.57;;
21162;SDS011;10739;52.198;20.908;2023-12-29T03:44:17;19.13;;;9.98;;
21162;SDS011;10739;52.198;20.908;2023-12-29T03:46:43;16.50;;;9.02;;
21162;SDS011;10739;52.198;20.908;2023-12-29T03:49:09;16.13;;;9.57;;
21162;SDS011;10739;52.198;20.908;2023-12-29T03:51:36;16.50;;;9.20;;
21162;SDS011;10739;52.198;20.908;2023-12-29T03:54:02;15.15;;;9.18;;
21162;SDS011;10739;52.198;20.908;2023-12-29T03:56:29;20.60;;;10.05;;
21162;SDS011;10739;52.198;20.908;2023-12-29T03:58:55;14.63;;;9.55;;
21162;SDS011;10739;52.198;20.908;2023-12-29T04:01:21;20.17;;;10.38;;
21162;SDS011;10739;52.198;20.908;2023-12-29T04:03:47;15.07;;;9.95;;
21162;SDS011;10739;52.198;20.908;2023-12-29T04:06:13;19.33;;;10.90;;
21162;SDS011;10739;52.198;20.908;2023-12-29T04:08:40;17.70;;;10.98;;
21162;SDS011;10739;52.198;20.908;2023-12-29T04:11:06;18.83;;;11.32;;
21162;SDS011;10739;52.198;20.908;2023-12-29T04:13:32;17.48;;;11.38;;
21162;SDS011;10739;52.198;20.908;2023-12-29T04:15:58;20.95;;;11.20;;
21162;SDS011;10739;52.198;20.908;2023-12-29T04:18:25;17.95;;;10.52;;
21162;SDS011;10739;52.198;20.908;2023-12-29T04:20:51;20.63;;;10.43;;
21162;SDS011;10739;52.198;20.908;2023-12-29T04:23:17;19.92;;;10.27;;
21162;SDS011;10739;52.198;20.908;2023-12-29T04:25:43;21.33;;;10.55;;
21162;SDS011;10739;52.198;20.908;2023-12-29T04:28:09;19.42;;;10.88;;
21162;SDS011;10739;52.198;20.908;2023-12-29T04:30:35;21.02;;;11.25;;
21162;SDS011;10739;52.198;20.908;2023-12-29T04:33:02;14.68;;;10.02;;
21162;SDS011;10739;52.198;20.908;2023-12-29T04:35:28;18.70;;;10.85;;
21162;SDS011;10739;52.198;20.908;2023-12-29T04:37:54;18.33;;;11.43;;
21162;SDS011;10739;52.198;20.908;2023-12-29T04:40:20;19.58;;;10.95;;
21162;SDS011;10739;52.198;20.908;2023-12-29T04:42:47;21.90;;;10.82;;
21162;SDS011;10739;52.198;20.908;2023-12-29T04:45:13;21.58;;;11.27;;
21162;SDS011;10739;52.198;20.908;2023-12-29T04:47:39;20.23;;;10.48;;
21162;SDS011;10739;52.198;20.908;2023-12-29T04:50:06;16.13;;;10.40;;
21162;SDS011;10739;52.198;20.908;2023-12-29T04:52:32;20.77;;;10.60;;
21162;SDS011;10739;52.198;20.908;2023-12-29T04:54:59;18.48;;;10.32;;
21162;SDS011;10739;52.198;20.908;2023-12-29T04:57:25;19.88;;;11.38;;
21162;SDS011;10739;52.198;20.908;2023-12-29T04:59:52;20.98;;;10.73;;
21162;SDS011;10739;52.198;20.908;2023-12-29T05:02:18;15.68;;;10.27;;
21162;SDS011;10739;52.198;20.908;2023-12-29T05:04:45;15.77;;;9.75;;
21162;SDS011;10739;52.198;20.908;2023-12-29T05:07:11;17.35;;;10.18;;
21162;SDS011;10739;52.198;20.908;2023-12-29T05:09:38;17.55;;;10.32;;
21162;SDS011;10739;52.198;20.908;2023-12-29T05:12:04;19.45;;;10.82;;
21162;SDS011;10739;52.198;20.908;2023-12-29T05:14:30;16.88;;;9.23;;
21162;SDS011;10739;52.198;20.908;2023-12-29T05:16:56;16.50;;;9.38;;
21162;SDS011;10739;52.198;20.908;2023-12-29T05:19:22;17.48;;;8.73;;
21162;SDS011;10739;52.198;20.908;2023-12-29T05:21:48;15.70;;;9.05;;
21162;SDS011;10739;52.198;20.908;2023-12-29T05:24:19;15.82;;;9.18;;
21162;SDS011;10739;52.198;20.908;2023-12-29T05:26:45;16.80;;;8.40;;
21162;SDS011;10739;52.198;20.908;2023-12-29T05:29:11;16.20;;;8.32;;
21162;SDS011;10739;52.198;20.908;2023-12-29T05:31:37;13.88;;;8.20;;
21162;SDS011;10739;52.198;20.908;2023-12-29T05:34:03;13.93;;;8.27;;
21162;SDS011;10739;52.198;20.908;2023-12-29T05:36:30;15.75;;;8.25;;
21162;SDS011;10739;52.198;20.908;2023-12-29T05:39:00;14.57;;;8.50;;
21162;SDS011;10739;52.198;20.908;2023-12-29T05:41:26;15.13;;;8.40;;
21162;SDS011;10739;52.198;20.908;2023-12-29T05:43:53;18.55;;;9.18;;
21162;SDS011;10739;52.198;20.908;2023-12-29T05:46:19;12.65;;;7.90;;
21162;SDS011;10739;52.198;20.908;2023-12-29T05:48:46;13.15;;;7.93;;
21162;SDS011;10739;52.198;20.908;2023-12-29T05:51:13;15.10;;;7.28;;
21162;SDS011;10739;52.198;20.908;2023-12-29T05:53:40;12.85;;;7.63;;
21162;SDS011;10739;52.198;20.908;2023-12-29T05:56:06;10.23;;;7.13;;
21162;SDS011;10739;52.198;20.908;2023-12-29T05:58:32;13.23;;;6.88;;
21162;SDS011;10739;52.198;20.908;2023-12-29T06:00:58;12.52;;;6.80;;
21162;SDS011;10739;52.198;20.908;2023-12-29T06:03:26;13.20;;;7.47;;
21162;SDS011;10739;52.198;20.908;2023-12-29T06:05:52;12.88;;;6.78;;
21162;SDS011;10739;52.198;20.908;2023-12-29T06:08:19;12.27;;;6.43;;
21162;SDS011;10739;52.198;20.908;2023-12-29T06:10:45;16.20;;;7.40;;
21162;SDS011;10739;52.198;20.908;2023-12-29T06:13:12;13.43;;;6.93;;
21162;SDS011;10739;52.198;20.908;2023-12-29T06:15:38;13.02;;;7.25;;
21162;SDS011;10739;52.198;20.908;2023-12-29T06:18:04;12.93;;;6.90;;
21162;SDS011;10739;52.198;20.908;2023-12-29T06:20:30;8.50;;;5.50;;
21162;SDS011;10739;52.198;20.908;2023-12-29T06:22:56;9.98;;;5.97;;
21162;SDS011;10739;52.198;20.908;2023-12-29T06:25:22;12.77;;;5.93;;
21162;SDS011;10739;52.198;20.908;2023-12-29T06:27:53;12.57;;;5.70;;
21162;SDS011;10739;52.198;20.908;2023-12-29T06:30:20;9.70;;;6.03;;
21162;SDS011;10739;52.198;20.908;2023-12-29T06:32:46;10.45;;;6.38;;
21162;SDS011;10739;52.198;20.908;2023-12-29T06:35:12;10.23;;;6.57;;
21162;SDS011;10739;52.198;20.908;2023-12-29T06:37:39;11.15;;;7.07;;
21162;SDS011;10739;52.198;20.908;2023-12-29T06:40:06;10.55;;;6.05;;
21162;SDS011;10739;52.198;20.908;2023-12-29T06:42:33;8.68;;;5.80;;
21162;SDS011;10739;52.198;20.908;2023-12-29T06:44:59;9.85;;;6.10;;
21162;SDS011;10739;52.198;20.908;2023-12-29T06:47:26;8.93;;;6.28;;
21162;SDS011;10739;52.198;20.908;2023-12-29T06:49:52;9.52;;;6.13;;
21162;SDS011;10739;52.198;20.908;2023-12-29T06:52:18;8.95;;;6.57;;
21162;SDS011;10739;52.198;20.908;2023-12-29T06:54:45;11.25;;;6.05;;
21162;SDS011;10739;52.198;20.908;2023-12-29T06:57:11;9.63;;;5.75;;
21162;SDS011;10739;52.198;20.908;2023-12-29T06:59:39;8.70;;;5.38;;
21162;SDS011;10739;52.198;20.908;2023-12-29T07:02:06;9.18;;;5.50;;
21162;SDS011;10739;52.198;20.908;2023-12-29T07:04:32;10.40;;;6.30;;
21162;SDS011;10739;52.198;20.908;2023-12-29T07:06:59;9.93;;;5.88;;
21162;SDS011;10739;52.198;20.908;2023-12-29T07:09:26;11.32;;;5.78;;
21162;SDS011;10739;52.198;20.908;2023-12-29T07:11:52;11.00;;;5.85;;
21162;SDS011;10739;52.198;20.908;2023-12-29T07:14:18;14.05;;;6.75;;
21162;SDS011;10739;52.198;20.908;2023-12-29T07:16:44;8.10;;;5.85;;
21162;SDS011;10739;52.198;20.908;2023-12-29T07:19:10;7.32;;;5.10;;
21162;SDS011;10739;52.198;20.908;2023-12-29T07:21:37;9.57;;;6.13;;
21162;SDS011;10739;52.198;20.908;2023-12-29T07:24:03;8.48;;;6.28;;
21162;SDS011;10739;52.198;20.908;2023-12-29T07:26:32;12.20;;;6.88;;
21162;SDS011;10739;52.198;20.908;2023-12-29T07:28:59;11.43;;;6.53;;
21162;SDS011;10739;52.198;20.908;2023-12-29T07:31:25;11.35;;;6.45;;
21162;SDS011;10739;52.198;20.908;2023-12-29T07:33:52;13.38;;;6.57;;
21162;SDS011;10739;52.198;20.908;2023-12-29T07:36:18;14.52;;;7.13;;
21162;SDS011;10739;52.198;20.908;2023-12-29T07:38:44;14.02;;;7.28;;
21162;SDS011;10739;52.198;20.908;2023-12-29T07:41:10;12.05;;;6.82;;
21162;SDS011;10739;52.198;20.908;2023-12-29T07:43:36;13.52;;;7.85;;
21162;SDS011;10739;52.198;20.908;2023-12-29T07:46:03;12.07;;;6.60;;
21162;SDS011;10739;52.198;20.908;2023-12-29T07:48:29;10.80;;;6.25;;
21162;SDS011;10739;52.198;20.908;2023-12-29T07:50:55;11.80;;;6.97;;
21162;SDS011;10739;52.198;20.908;2023-12-29T07:53:31;13.02;;;7.30;;
21162;SDS011;10739;52.198;20.908;2023-12-29T07:55:57;11.00;;;6.43;;
21162;SDS011;10739;52.198;20.908;2023-12-29T07:58:23;13.23;;;7.03;;
21162;SDS011;10739;52.198;20.908;2023-12-29T08:00:49;9.27;;;6.00;;
21162;SDS011;10739;52.198;20.908;2023-12-29T08:03:16;10.77;;;6.78;;
21162;SDS011;10739;52.198;20.908;2023-12-29T08:05:42;9.10;;;6.18;;
21162;SDS011;10739;52.198;20.908;2023-12-29T08:08:08;11.32;;;6.43;;
21162;SDS011;10739;52.198;20.908;2023-12-29T08:10:34;13.13;;;6.82;;
21162;SDS011;10739;52.198;20.908;2023-12-29T08:13:00;9.35;;;5.93;;
21162;SDS011;10739;52.198;20.908;2023-12-29T08:15:26;8.25;;;5.32;;
21162;SDS011;10739;52.198;20.908;2023-12-29T08:17:52;9.20;;;5.25;;
21162;SDS011;10739;52.198;20.908;2023-12-29T08:20:19;6.38;;;4.15;;
21162;SDS011;10739;52.198;20.908;2023-12-29T08:22:46;9.02;;;4.47;;
21162;SDS011;10739;52.198;20.908;2023-12-29T08:25:12;7.97;;;4.25;;
21162;SDS011;10739;52.198;20.908;2023-12-29T08:27:38;6.78;;;4.10;;
21162;SDS011;10739;52.198;20.908;2023-12-29T08:30:06;6.35;;;3.97;;
21162;SDS011;10739;52.198;20.908;2023-12-29T08:32:33;6.65;;;4.40;;
21162;SDS011;10739;52.198;20.908;2023-12-29T08:34:59;6.80;;;4.10;;
21162;SDS011;10739;52.198;20.908;2023-12-29T08:37:25;8.88;;;4.93;;
21162;SDS011;10739;52.198;20.908;2023-12-29T08:39:52;8.18;;;4.78;;
21162;SDS011;10739;52.198;20.908;2023-12-29T08:42:18;7.88;;;5.18;;
21162;SDS011;10739;52.198;20.908;2023-12-29T08:44:45;6.93;;;4.55;;
21162;SDS011;10739;52.198;20.908;2023-12-29T08:47:11;12.25;;;5.82;;
21162;SDS011;10739;52.198;20.908;2023-12-29T08:49:37;8.70;;;4.80;;
21162;SDS011;10739;52.198;20.908;2023-12-29T08:52:04;8.45;;;5.55;;
21162;SDS011;10739;52.198;20.908;2023-12-29T08:54:30;7.35;;;5.18;;
21162;SDS011;10739;52.198;20.908;2023-12-29T08:56:56;9.90;;;5.65;;
21162;SDS011;10739;52.198;20.908;2023-12-29T08:59:22;8.13;;;5.68;;
21162;SDS011;10739;52.198;20.908;2023-12-29T09:01:49;11.48;;;6.13;;
21162;SDS011;10739;52.198;20.908;2023-12-29T09:04:15;10.80;;;5.90;;
21162;SDS011;10739;52.198;20.908;2023-12-29T09:06:41;9.02;;;5.40;;
21162;SDS011;10739;52.198;20.908;2023-12-29T09:09:07;9.38;;;5.60;;
21162;SDS011;10739;52.198;20.908;2023-12-29T09:11:38;9.65;;;6.10;;
21162;SDS011;10739;52.198;20.908;2023-12-29T09:14:06;8.73;;;5.45;;
21162;SDS011;10739;52.198;20.908;2023-12-29T09:16:34;7.72;;;4.75;;
21162;SDS011;10739;52.198;20.908;2023-12-29T09:19:01;10.05;;;5.97;;
21162;SDS011;10739;52.198;20.908;2023-12-29T09:21:28;6.43;;;4.70;;
21162;SDS011;10739;52.198;20.908;2023-12-29T09:23:54;10.27;;;5.55;;
21162;SDS011;10739;52.198;20.908;2023-12-29T09:26:20;8.43;;;4.70;;
21162;SDS011;10739;52.198;20.908;2023-12-29T09:28:47;7.72;;;4.53;;
21162;SDS011;10739;52.198;20.908;2023-12-29T09:31:13;6.03;;;4.40;;
21162;SDS011;10739;52.198;20.908;2023-12-29T09:33:40;6.03;;;4.32;;
21162;SDS011;10739;52.198;20.908;2023-12-29T09:36:06;7.53;;;4.78;;
21162;SDS011;10739;52.198;20.908;2023-12-29T09:38:33;5.97;;;4.20;;
21162;SDS011;10739;52.198;20.908;2023-12-29T09:41:02;6.45;;;4.38;;
21162;SDS011;10739;52.198;20.908;2023-12-29T09:43:36;7.57;;;4.65;;
21162;SDS011;10739;52.198;20.908;2023-12-29T09:46:05;8.63;;;4.45;;
21162;SDS011;10739;52.198;20.908;2023-12-29T09:48:34;8.10;;;5.05;;
21162;SDS011;10739;52.198;20.908;2023-12-29T09:51:04;6.80;;;4.82;;
21162;SDS011;10739;52.198;20.908;2023-12-29T09:53:32;8.48;;;4.60;;
21162;SDS011;10739;52.198;20.908;2023-12-29T09:56:02;8.45;;;4.28;;
21162;SDS011;10739;52.198;20.908;2023-12-29T09:58:33;7.70;;;4.38;;
21162;SDS011;10739;52.198;20.908;2023-12-29T10:01:03;7.30;;;4.78;;
21162;SDS011;10739;52.198;20.908;2023-12-29T10:03:33;7.45;;;4.75;;
21162;SDS011;10739;52.198;20.908;2023-12-29T10:06:00;6.13;;;4.20;;
21162;SDS011;10739;52.198;20.908;2023-12-29T10:08:32;5.50;;;3.95;;
21162;SDS011;10739;52.198;20.908;2023-12-29T10:11:01;8.18;;;4.72;;
21162;SDS011;10739;52.198;20.908;2023-12-29T10:13:30;6.55;;;4.25;;
21162;SDS011;10739;52.198;20.908;2023-12-29T10:22:15;6.35;;;4.40;;
21162;SDS011;10739;52.198;20.908;2023-12-29T10:24:51;7.47;;;4.68;;
21162;SDS011;10739;52.198;20.908;2023-12-29T10:27:18;4.97;;;3.58;;
21162;SDS011;10739;52.198;20.908;2023-12-29T10:29:45;8.35;;;4.43;;
21162;SDS011;10739;52.198;20.908;2023-12-29T10:32:12;10.07;;;4.45;;
21162;SDS011;10739;52.198;20.908;2023-12-29T10:34:38;5.80;;;4.05;;
21162;SDS011;10739;52.198;20.908;2023-12-29T10:37:04;7.85;;;4.72;;
21162;SDS011;10739;52.198;20.908;2023-12-29T10:39:35;6.85;;;4.15;;
21162;SDS011;10739;52.198;20.908;2023-12-29T10:42:05;7.32;;;4.35;;
21162;SDS011;10739;52.198;20.908;2023-12-29T10:44:34;7.07;;;4.40;;
21162;SDS011;10739;52.198;20.908;2023-12-29T10:47:08;6.80;;;3.67;;
21162;SDS011;10739;52.198;20.908;2023-12-29T10:49:36;8.40;;;5.07;;
21162;SDS011;10739;52.198;20.908;2023-12-29T10:52:15;6.68;;;4.28;;
21162;SDS011;10739;52.198;20.908;2023-12-29T10:54:43;7.65;;;4.50;;
21162;SDS011;10739;52.198;20.908;2023-12-29T10:57:10;5.97;;;4.13;;
21162;SDS011;10739;52.198;20.908;2023-12-29T10:59:41;5.45;;;3.60;;
21162;SDS011;10739;52.198;20.908;2023-12-29T11:02:07;5.22;;;3.90;;
21162;SDS011;10739;52.198;20.908;2023-12-29T11:04:40;8.52;;;4.50;;
21162;SDS011;10739;52.198;20.908;2023-12-29T11:07:06;7.90;;;4.10;;
21162;SDS011;10739;52.198;20.908;2023-12-29T11:09:36;8.18;;;4.40;;
21162;SDS011;10739;52.198;20.908;2023-12-29T11:12:07;7.82;;;4.20;;
21162;SDS011;10739;52.198;20.908;2023-12-29T11:14:34;9.00;;;4.28;;
21162;SDS011;10739;52.198;20.908;2023-12-29T11:17:03;7.30;;;4.25;;
21162;SDS011;10739;52.198;20.908;2023-12-29T11:19:31;8.98;;;4.90;;
21162;SDS011;10739;52.198;20.908;2023-12-29T11:21:58;7.47;;;4.90;;
21162;SDS011;10739;52.198;20.908;2023-12-29T11:24:27;6.35;;;4.18;;
21162;SDS011;10739;52.198;20.908;2023-12-29T11:26:54;6.72;;;4.43;;
21162;SDS011;10739;52.198;20.908;2023-12-29T11:29:20;9.23;;;4.75;;
21162;SDS011;10739;52.198;20.908;2023-12-29T11:31:47;12.10;;;4.75;;
21162;SDS011;10739;52.198;20.908;2023-12-29T11:34:26;9.77;;;4.65;;
21162;SDS011;10739;52.198;20.908;2023-12-29T11:37:18;7.22;;;3.55;;
21162;SDS011;10739;52.198;20.908;2023-12-29T11:40:19;6.43;;;4.47;;
21162;SDS011;10739;52.198;20.908;2023-12-29T11:42:54;7.70;;;4.80;;
21162;SDS011;10739;52.198;20.908;2023-12-29T11:45:28;7.97;;;4.32;;
21162;SDS011;10739;52.198;20.908;2023-12-29T11:48:02;8.57;;;4.53;;
21162;SDS011;10739;52.198;20.908;2023-12-29T11:50:33;6.82;;;4.85;;
21162;SDS011;10739;52.198;20.908;2023-12-29T11:53:05;9.38;;;4.25;;
21162;SDS011;10739;52.198;20.908;2023-12-29T11:55:37;9.13;;;4.43;;
21162;SDS011;10739;52.198;20.908;2023-12-29T12:00:53;7.95;;;4.72;;
21162;SDS011;10739;52.198;20.908;2023-12-29T12:03:30;6.85;;;4.53;;
21162;SDS011;10739;52.198;20.908;2023-12-29T12:06:00;8.30;;;4.43;;
21162;SDS011;10739;52.198;20.908;2023-12-29T12:13:56;5.93;;;3.95;;
21162;SDS011;10739;52.198;20.908;2023-12-29T12:19:08;7.00;;;4.15;;
21162;SDS011;10739;52.198;20.908;2023-12-29T12:21:35;6.85;;;4.40;;
21162;SDS011;10739;52.198;20.908;2023-12-29T12:24:03;7.55;;;4.43;;
21162;SDS011;10739;52.198;20.908;2023-12-29T12:26:31;6.00;;;4.20;;
21162;SDS011;10739;52.198;20.908;2023-12-29T12:28:57;7.55;;;4.78;;
21162;SDS011;10739;52.198;20.908;2023-12-29T12:31:25;9.00;;;3.83;;
21162;SDS011;10739;52.198;20.908;2023-12-29T12:33:54;12.55;;;5.18;;
21162;SDS011;10739;52.198;20.908;2023-12-29T12:36:21;9.90;;;4.30;;
21162;SDS011;10739;52.198;20.908;2023-12-29T12:38:52;7.05;;;4.47;;
21162;SDS011;10739;52.198;20.908;2023-12-29T12:41:21;8.10;;;4.72;;
21162;SDS011;10739;52.198;20.908;2023-12-29T12:49:24;10.07;;;4.45;;
21162;SDS011;10739;52.198;20.908;2023-12-29T12:51:51;7.55;;;4.70;;
21162;SDS011;10739;52.198;20.908;2023-12-29T12:54:19;7.65;;;4.50;;
21162;SDS011;10739;52.198;20.908;2023-12-29T12:56:46;14.27;;;5.88;;
21162;SDS011;10739;52.198;20.908;2023-12-29T12:59:13;7.30;;;4.22;;
21162;SDS011;10739;52.198;20.908;2023-12-29T13:01:39;7.28;;;4.43;;
21162;SDS011;10739;52.198;20.908;2023-12-29T13:04:06;8.23;;;4.95;;
21162;SDS011;10739;52.198;20.908;2023-12-29T13:06:34;8.40;;;4.60;;
21162;SDS011;10739;52.198;20.908;2023-12-29T13:09:09;6.20;;;4.13;;
21162;SDS011;10739;52.198;20.908;2023-12-29T13:11:40;7.18;;;4.50;;
21162;SDS011;10739;52.198;20.908;2023-12-29T13:14:06;8.45;;;4.65;;
21162;SDS011;10739;52.198;20.908;2023-12-29T13:16:34;7.30;;;4.10;;
21162;SDS011;10739;52.198;20.908;2023-12-29T13:21:50;13.23;;;5.93;;
21162;SDS011;10739;52.198;20.908;2023-12-29T13:24:21;8.90;;;5.30;;
21162;SDS011;10739;52.198;20.908;2023-12-29T13:26:54;9.23;;;5.25;;
21162;SDS011;10739;52.198;20.908;2023-12-29T13:29:27;7.70;;;5.05;;
21162;SDS011;10739;52.198;20.908;2023-12-29T13:31:57;10.20;;;4.82;;
21162;SDS011;10739;52.198;20.908;2023-12-29T13:34:31;7.80;;;3.83;;
21162;SDS011;10739;52.198;20.908;2023-12-29T13:40:25;11.30;;;4.20;;
21162;SDS011;10739;52.198;20.908;2023-12-29T13:43:01;7.45;;;3.83;;
21162;SDS011;10739;52.198;20.908;2023-12-29T13:45:29;12.93;;;4.32;;
21162;SDS011;10739;52.198;20.908;2023-12-29T13:47:56;9.05;;;4.93;;
21162;SDS011;10739;52.198;20.908;2023-12-29T13:50:24;10.68;;;4.63;;
21162;SDS011;10739;52.198;20.908;2023-12-29T13:52:51;9.82;;;4.57;;
21162;SDS011;10739;52.198;20.908;2023-12-29T13:55:24;9.55;;;4.63;;
21162;SDS011;10739;52.198;20.908;2023-12-29T13:57:51;8.27;;;4.43;;
21162;SDS011;10739;52.198;20.908;2023-12-29T14:00:19;9.38;;;4.93;;
21162;SDS011;10739;52.198;20.908;2023-12-29T14:11:13;6.97;;;4.40;;
21162;SDS011;10739;52.198;20.908;2023-12-29T14:13:42;8.27;;;5.05;;
21162;SDS011;10739;52.198;20.908;2023-12-29T14:16:10;6.75;;;4.78;;
21162;SDS011;10739;52.198;20.908;2023-12-29T14:21:21;8.43;;;4.75;;
21162;SDS011;10739;52.198;20.908;2023-12-29T14:23:59;8.90;;;4.40;;
21162;SDS011;10739;52.198;20.908;2023-12-29T14:29:19;10.60;;;5.00;;
21162;SDS011;10739;52.198;20.908;2023-12-29T14:31:46;8.80;;;4.60;;
21162;SDS011;10739;52.198;20.908;2023-12-29T14:34:13;11.25;;;4.55;;
21162;SDS011;10739;52.198;20.908;2023-12-29T14:36:40;6.75;;;4.25;;
21162;SDS011;10739;52.198;20.908;2023-12-29T14:39:08;7.63;;;4.32;;
21162;SDS011;10739;52.198;20.908;2023-12-29T14:41:35;8.20;;;4.65;;
21162;SDS011;10739;52.198;20.908;2023-12-29T14:44:02;9.43;;;4.40;;
21162;SDS011;10739;52.198;20.908;2023-12-29T14:46:28;5.93;;;4.20;;
21162;SDS011;10739;52.198;20.908;2023-12-29T14:48:56;6.78;;;3.60;;
21162;SDS011;10739;52.198;20.908;2023-12-29T14:51:26;5.60;;;3.88;;
21162;SDS011;10739;52.198;20.908;2023-12-29T14:53:52;7.72;;;4.30;;
21162;SDS011;10739;52.198;20.908;2023-12-29T14:56:18;6.65;;;4.15;;
21162;SDS011;10739;52.198;20.908;2023-12-29T14:58:44;7.65;;;4.72;;
21162;SDS011;10739;52.198;20.908;2023-12-29T15:01:11;6.85;;;4.43;;
21162;SDS011;10739;52.198;20.908;2023-12-29T15:03:38;8.05;;;4.35;;
21162;SDS011;10739;52.198;20.908;2023-12-29T15:06:05;14.73;;;3.90;;
21162;SDS011;10739;52.198;20.908;2023-12-29T15:08:31;6.35;;;3.88;;
21162;SDS011;10739;52.198;20.908;2023-12-29T15:11:03;7.90;;;4.38;;
21162;SDS011;10739;52.198;20.908;2023-12-29T15:13:31;9.27;;;4.75;;
21162;SDS011;10739;52.198;20.908;2023-12-29T15:15:58;10.20;;;4.40;;
21162;SDS011;10739;52.198;20.908;2023-12-29T15:18:29;7.30;;;4.28;;
21162;SDS011;10739;52.198;20.908;2023-12-29T15:20:56;10.85;;;4.30;;
21162;SDS011;10739;52.198;20.908;2023-12-29T15:23:23;7.57;;;4.20;;